Bookmark and Share
Track history (hours):
 

Drifting buoy 33972

Last reported at 2012-Oct-27 09:10 UTC. Time now 2014-Apr-23 09:43 UTC.
Position S 26°28' E 080°48'.
Warning: this ship's position is years out of date!

NotesDate/timePositionNaut miles runAvg speedWind from/ knotsBaromVisibWave heightAir tempDewpointWater temp
2012-Oct-27 09:10S 26°28' E 080°48'0 0.0
2012-Oct-27 08:10S 26°28' E 080°48'0 0.0
2012-Oct-27 07:10S 26°28' E 080°48'0 0.0
2012-Oct-27 06:10S 26°28' E 080°48'0 0.0
2012-Oct-27 03:10S 26°28' E 080°48'3 0.9
2012-Oct-26 23:10S 26°24' E 080°49'0 0.0
2012-Oct-26 22:10S 26°24' E 080°49'1 1.1
2012-Oct-26 21:10S 26°23' E 080°49'0 0.0
2012-Oct-26 20:10S 26°23' E 080°49'  
2012-Oct-24 15:10S 25°49' E 081°26'4 1.0
2012-Oct-24 11:10S 25°47' E 081°30'3 1.3
2012-Oct-24 09:10S 25°46' E 081°33'2 1.9
2012-Oct-24 08:10S 25°46' E 081°35'0 0.0
2012-Oct-24 07:10S 25°46' E 081°35'0 0.0
2012-Oct-24 06:10S 25°46' E 081°35'3 1.5
2012-Oct-24 04:10S 25°46' E 081°39'4 1.2
2012-Oct-24 01:10S 25°45' E 081°42'0 0.0
2012-Oct-24 00:10S 25°45' E 081°42'4 1.9
2012-Oct-23 22:10S 25°44' E 081°47'0 0.4
2012-Oct-23 21:10S 25°44' E 081°47'0 0.1
2012-Oct-23 20:10S 25°44' E 081°47'1 1.4
2012-Oct-23 19:10S 25°44' E 081°49'0 0.0
2012-Oct-23 18:10S 25°44' E 081°49'2 1.8
2012-Oct-23 17:10S 25°44' E 081°51'1 1.1
2012-Oct-23 16:10S 25°44' E 081°52'2 2.0
2012-Oct-23 15:10S 25°44' E 081°54'0 0.0
2012-Oct-23 14:10S 25°44' E 081°54'0 0.3
2012-Oct-23 13:10S 25°44' E 081°54'0 0.0
2012-Oct-23 12:10S 25°44' E 081°54'3 2.9
2012-Oct-23 11:10S 25°44' E 081°57'1 0.3
2012-Oct-23 09:10S 25°44' E 081°58'0 0.4
2012-Oct-23 08:10S 25°44' E 081°58'1 0.6
2012-Oct-23 07:10S 25°44' E 081°59'2 4.0
2012-Oct-23 06:40S 25°44' E 082°01'0 0.0
2012-Oct-23 06:10S 25°44' E 082°01'1 0.3
2012-Oct-23 04:10S 25°43' E 082°01'0 0.0
2012-Oct-23 03:10S 25°43' E 082°01'1 1.2
2012-Oct-23 02:10S 25°43' E 082°03'0 0.3
2012-Oct-23 01:10S 25°43' E 082°03'3 0.8
2012-Oct-22 21:10S 25°42' E 082°06'0 0.4
2012-Oct-22 20:10S 25°42' E 082°07'2 2.3
2012-Oct-22 19:10S 25°42' E 082°09'0 0.0
2012-Oct-22 18:10S 25°42' E 082°09'1 1.4
2012-Oct-22 17:20S 25°42' E 082°10'0 0.2
2012-Oct-22 15:10S 25°42' E 082°11'2 1.1
2012-Oct-22 13:10S 25°43' E 082°13'2 0.7
2012-Oct-22 10:10S 25°43' E 082°15'1 0.9
2012-Oct-22 09:10S 25°43' E 082°16'0 0.0
2012-Oct-22 08:10S 25°43' E 082°16'2 2.0
2012-Oct-22 07:10S 25°43' E 082°19'0 0.0
2012-Oct-22 05:10S 25°43' E 082°19'0 0.0
2012-Oct-22 04:10S 25°43' E 082°19'1 1.4
2012-Oct-22 03:10S 25°43' E 082°20'0 0.0
2012-Oct-22 01:10S 25°43' E 082°20'3 0.7
2012-Oct-21 21:10S 25°43' E 082°23'1 0.7
2012-Oct-21 20:10S 25°43' E 082°24'0 0.4
2012-Oct-21 19:10S 25°43' E 082°24'2 1.7
2012-Oct-21 18:10S 25°42' E 082°26'2 0.7
2012-Oct-21 15:10S 25°42' E 082°28'0 0.4
2012-Oct-21 14:10S 25°43' E 082°29'0 0.0
2012-Oct-21 13:10S 25°43' E 082°29'4 4.2
2012-Oct-21 12:10S 25°44' E 082°33'0 0.1
2012-Oct-21 10:10S 25°44' E 082°33'1 0.8
2012-Oct-21 09:10S 25°44' E 082°34'2 1.7
2012-Oct-21 08:10S 25°45' E 082°35'0 0.1
2012-Oct-21 07:10S 25°45' E 082°35'4 1.0
2012-Oct-21 03:10S 25°49' E 082°38'1 0.9
2012-Oct-21 02:10S 25°50' E 082°38'1 0.5
2012-Oct-21 01:10S 25°50' E 082°38'2 0.6
2012-Oct-20 21:10S 25°52' E 082°39'1 0.6
2012-Oct-20 20:10S 25°53' E 082°40'0 0.4
2012-Oct-20 19:10S 25°53' E 082°40'0 0.0
2012-Oct-20 18:10S 25°53' E 082°40'2 2.0
2012-Oct-20 17:10S 25°54' E 082°41'0 0.4
2012-Oct-20 16:10S 25°55' E 082°42'1 1.2
2012-Oct-20 15:10S 25°56' E 082°42'1 0.5
2012-Oct-20 14:10S 25°56' E 082°43'0 0.0
2012-Oct-20 13:10S 25°56' E 082°43'4 1.4
2012-Oct-20 10:10S 25°59' E 082°45'2 1.6
2012-Oct-20 09:10S 26°01' E 082°46'1 1.2
2012-Oct-20 08:10S 26°02' E 082°46'6 5.9
2012-Oct-20 07:10S 26°08' E 082°48'1 0.4
2012-Oct-20 04:10S 26°09' E 082°48'0 0.0
2012-Oct-20 03:10S 26°09' E 082°48'2 2.5
2012-Oct-20 02:10S 26°11' E 082°49'2 2.2
2012-Oct-20 01:10S 26°13' E 082°48'0 0.0
2012-Oct-20 00:10S 26°13' E 082°48'4 1.8
2012-Oct-19 22:10S 26°17' E 082°47'1 0.8
2012-Oct-19 21:10S 26°18' E 082°47'1 1.2
2012-Oct-19 20:10S 26°19' E 082°47'3 1.0
2012-Oct-19 17:10S 26°22' E 082°45'1 1.3
2012-Oct-19 16:10S 26°23' E 082°44'1 1.3
2012-Oct-19 15:10S 26°23' E 082°43'1 0.7
2012-Oct-19 14:20S 26°23' E 082°42'2 1.4
2012-Oct-19 13:10S 26°24' E 082°41'2 2.1
2012-Oct-19 12:10S 26°24' E 082°38'1 0.6
2012-Oct-19 10:10S 26°24' E 082°37'1 1.0
2012-Oct-19 09:10S 26°24' E 082°36'2 1.8
2012-Oct-19 08:10S 26°24' E 082°34'0 0.0
2012-Oct-19 07:10S 26°24' E 082°34'2 2.3
2012-Oct-19 06:10S 26°25' E 082°31'1 0.3
2012-Oct-19 04:10S 26°25' E 082°31'1 0.9
2012-Oct-19 03:10S 26°25' E 082°30'1 0.9
2012-Oct-19 02:10S 26°25' E 082°29'3 0.8
2012-Oct-18 22:10S 26°27' E 082°25'1 0.8
2012-Oct-18 21:10S 26°27' E 082°25'1 0.7
2012-Oct-18 20:10S 26°27' E 082°24'3 1.0
2012-Oct-18 17:10S 26°27' E 082°21'0 0.0
2012-Oct-18 16:10S 26°27' E 082°21'1 1.1
2012-Oct-18 15:10S 26°27' E 082°20'1 0.9
2012-Oct-18 14:10S 26°27' E 082°19'0 0.0
2012-Oct-18 13:10S 26°27' E 082°19'0 0.2
2012-Oct-18 11:10S 26°27' E 082°18'1 0.6
2012-Oct-18 10:10S 26°27' E 082°17'0 0.4
2012-Oct-18 09:10S 26°27' E 082°17'0 0.4
2012-Oct-18 08:10S 26°26' E 082°17'0 0.0
2012-Oct-18 07:10S 26°26' E 082°17'0 0.0
2012-Oct-18 06:10S 26°26' E 082°17'0 0.2
2012-Oct-18 04:10S 26°26' E 082°18'0 0.2
2012-Oct-18 03:10S 26°26' E 082°17'0 0.2
2012-Oct-18 02:10S 26°26' E 082°18'1 0.9
2012-Oct-18 01:10S 26°27' E 082°18'0 0.2
2012-Oct-17 23:10S 26°28' E 082°17'0 0.0
2012-Oct-17 22:10S 26°28' E 082°17'1 0.6
2012-Oct-17 21:10S 26°28' E 082°17'0 0.1
2012-Oct-17 20:10S 26°28' E 082°17'1 1.0
2012-Oct-17 19:10S 26°29' E 082°17'0 0.0
2012-Oct-17 18:10S 26°29' E 082°17'1 0.6
2012-Oct-17 17:10S 26°30' E 082°16'0 0.1
2012-Oct-17 16:00S 26°30' E 082°16'1 0.3
2012-Oct-17 12:10S 26°31' E 082°16'0 0.5
2012-Oct-17 11:10S 26°31' E 082°16'0 0.5
2012-Oct-17 10:10S 26°31' E 082°15'0 0.2
2012-Oct-17 09:10S 26°31' E 082°15'  

Dump ship's entire track history

sailing weather and tide predictions

Buoy 33972